sensor_id;sensor_type;location;lat;lon;timestamp;temperature;humidity
19493;DHT22;9887;54.366;10.958;2024-01-15T00:00:37;2.70;99.90
19493;DHT22;9887;54.366;10.958;2024-01-15T00:03:05;2.70;99.90
19493;DHT22;9887;54.366;10.958;2024-01-15T00:05:33;2.70;99.90
19493;DHT22;9887;54.366;10.958;2024-01-15T00:08:00;2.70;99.90
19493;DHT22;9887;54.366;10.958;2024-01-15T00:10:28;2.70;99.90
19493;DHT22;9887;54.366;10.958;2024-01-15T00:12:58;2.70;99.90
19493;DHT22;9887;54.366;10.958;2024-01-15T00:15:25;2.60;99.90
19493;DHT22;9887;54.366;10.958;2024-01-15T00:17:55;2.70;99.90
19493;DHT22;9887;54.366;10.958;2024-01-15T00:20:23;2.60;99.90
19493;DHT22;9887;54.366;10.958;2024-01-15T00:22:55;2.60;99.90
19493;DHT22;9887;54.366;10.958;2024-01-15T00:25:23;2.60;99.90
19493;DHT22;9887;54.366;10.958;2024-01-15T00:27:51;2.60;99.90
19493;DHT22;9887;54.366;10.958;2024-01-15T00:30:20;2.60;99.90
19493;DHT22;9887;54.366;10.958;2024-01-15T00:32:48;2.60;99.90
19493;DHT22;9887;54.366;10.958;2024-01-15T00:35:16;2.60;99.90
19493;DHT22;9887;54.366;10.958;2024-01-15T00:37:44;2.60;99.90
19493;DHT22;9887;54.366;10.958;2024-01-15T00:40:12;2.60;99.90
19493;DHT22;9887;54.366;10.958;2024-01-15T00:42:40;2.60;99.90
19493;DHT22;9887;54.366;10.958;2024-01-15T00:45:09;2.60;99.90
19493;DHT22;9887;54.366;10.958;2024-01-15T00:47:39;2.60;99.90
19493;DHT22;9887;54.366;10.958;2024-01-15T00:50:07;2.60;99.90
19493;DHT22;9887;54.366;10.958;2024-01-15T00:52:35;2.60;99.90
19493;DHT22;9887;54.366;10.958;2024-01-15T00:55:04;2.60;99.90
19493;DHT22;9887;54.366;10.958;2024-01-15T00:57:33;2.60;99.90
19493;DHT22;9887;54.366;10.958;2024-01-15T01:00:01;2.60;99.90
19493;DHT22;9887;54.366;10.958;2024-01-15T01:02:32;2.60;99.90
19493;DHT22;9887;54.366;10.958;2024-01-15T01:05:02;2.60;99.90
19493;DHT22;9887;54.366;10.958;2024-01-15T01:07:31;2.60;99.90
19493;DHT22;9887;54.366;10.958;2024-01-15T01:09:59;2.60;99.90
19493;DHT22;9887;54.366;10.958;2024-01-15T01:12:26;2.60;99.90
19493;DHT22;9887;54.366;10.958;2024-01-15T01:14:54;2.60;99.90
19493;DHT22;9887;54.366;10.958;2024-01-15T01:17:22;2.60;99.90
19493;DHT22;9887;54.366;10.958;2024-01-15T01:19:50;2.60;99.90
19493;DHT22;9887;54.366;10.958;2024-01-15T01:22:20;2.60;99.90
19493;DHT22;9887;54.366;10.958;2024-01-15T01:24:48;2.60;99.90
19493;DHT22;9887;54.366;10.958;2024-01-15T01:27:15;2.60;99.90
19493;DHT22;9887;54.366;10.958;2024-01-15T01:29:43;2.60;99.90
19493;DHT22;9887;54.366;10.958;2024-01-15T01:32:11;2.60;99.90
19493;DHT22;9887;54.366;10.958;2024-01-15T01:34:40;2.60;99.90
19493;DHT22;9887;54.366;10.958;2024-01-15T01:37:09;2.60;99.90
19493;DHT22;9887;54.366;10.958;2024-01-15T01:39:41;2.60;99.90
19493;DHT22;9887;54.366;10.958;2024-01-15T01:42:09;2.60;99.90
19493;DHT22;9887;54.366;10.958;2024-01-15T01:44:37;2.60;99.90
19493;DHT22;9887;54.366;10.958;2024-01-15T01:47:05;2.60;99.90
19493;DHT22;9887;54.366;10.958;2024-01-15T01:49:33;2.60;99.90
19493;DHT22;9887;54.366;10.958;2024-01-15T01:52:05;2.60;99.90
19493;DHT22;9887;54.366;10.958;2024-01-15T01:54:35;2.60;99.90
19493;DHT22;9887;54.366;10.958;2024-01-15T01:57:06;2.60;99.90
19493;DHT22;9887;54.366;10.958;2024-01-15T01:59:35;2.60;99.90
19493;DHT22;9887;54.366;10.958;2024-01-15T02:02:04;2.60;99.90
19493;DHT22;9887;54.366;10.958;2024-01-15T02:04:32;2.60;99.90
19493;DHT22;9887;54.366;10.958;2024-01-15T02:07:02;2.60;99.90
19493;DHT22;9887;54.366;10.958;2024-01-15T02:09:31;2.60;99.90
19493;DHT22;9887;54.366;10.958;2024-01-15T02:11:59;2.70;99.90
19493;DHT22;9887;54.366;10.958;2024-01-15T02:14:29;2.60;99.90
19493;DHT22;9887;54.366;10.958;2024-01-15T02:16:57;2.60;99.90
19493;DHT22;9887;54.366;10.958;2024-01-15T02:19:25;2.70;99.90
19493;DHT22;9887;54.366;10.958;2024-01-15T02:21:52;2.60;99.90
19493;DHT22;9887;54.366;10.958;2024-01-15T02:24:22;2.70;99.90
19493;DHT22;9887;54.366;10.958;2024-01-15T02:26:50;2.70;99.90
19493;DHT22;9887;54.366;10.958;2024-01-15T02:29:18;2.60;99.90
19493;DHT22;9887;54.366;10.958;2024-01-15T02:31:45;2.70;99.90
19493;DHT22;9887;54.366;10.958;2024-01-15T02:34:13;2.70;99.90
19493;DHT22;9887;54.366;10.958;2024-01-15T02:36:41;2.70;99.90
19493;DHT22;9887;54.366;10.958;2024-01-15T02:39:09;2.60;99.90
19493;DHT22;9887;54.366;10.958;2024-01-15T02:41:39;2.70;99.90
19493;DHT22;9887;54.366;10.958;2024-01-15T02:44:06;2.70;99.90
19493;DHT22;9887;54.366;10.958;2024-01-15T02:46:34;2.70;99.90
19493;DHT22;9887;54.366;10.958;2024-01-15T02:49:02;2.70;99.90
19493;DHT22;9887;54.366;10.958;2024-01-15T02:51:30;2.70;99.90
19493;DHT22;9887;54.366;10.958;2024-01-15T02:53:58;2.70;99.90
19493;DHT22;9887;54.366;10.958;2024-01-15T02:56:26;2.70;99.90
19493;DHT22;9887;54.366;10.958;2024-01-15T02:58:55;2.70;99.90
19493;DHT22;9887;54.366;10.958;2024-01-15T03:01:23;2.70;99.90
19493;DHT22;9887;54.366;10.958;2024-01-15T03:03:51;2.70;99.90
19493;DHT22;9887;54.366;10.958;2024-01-15T03:06:19;2.70;99.90
19493;DHT22;9887;54.366;10.958;2024-01-15T03:08:47;2.70;99.90
19493;DHT22;9887;54.366;10.958;2024-01-15T03:11:15;2.70;99.90
19493;DHT22;9887;54.366;10.958;2024-01-15T03:13:43;2.60;99.90
19493;DHT22;9887;54.366;10.958;2024-01-15T03:16:12;2.60;99.90
19493;DHT22;9887;54.366;10.958;2024-01-15T03:18:40;2.70;99.90
19493;DHT22;9887;54.366;10.958;2024-01-15T03:21:08;2.60;99.90
19493;DHT22;9887;54.366;10.958;2024-01-15T03:23:36;2.70;99.90
19493;DHT22;9887;54.366;10.958;2024-01-15T03:26:03;2.70;99.90
19493;DHT22;9887;54.366;10.958;2024-01-15T03:28:33;2.70;99.90
19493;DHT22;9887;54.366;10.958;2024-01-15T03:31:00;2.60;99.90
19493;DHT22;9887;54.366;10.958;2024-01-15T03:33:30;2.70;99.90
19493;DHT22;9887;54.366;10.958;2024-01-15T03:35:58;2.70;99.90
19493;DHT22;9887;54.366;10.958;2024-01-15T03:38:28;2.60;99.90
19493;DHT22;9887;54.366;10.958;2024-01-15T03:40:55;2.70;99.90
19493;DHT22;9887;54.366;10.958;2024-01-15T03:43:24;2.60;99.90
19493;DHT22;9887;54.366;10.958;2024-01-15T03:45:51;2.60;99.90
19493;DHT22;9887;54.366;10.958;2024-01-15T03:48:19;2.60;99.90
19493;DHT22;9887;54.366;10.958;2024-01-15T03:50:49;2.70;99.90
19493;DHT22;9887;54.366;10.958;2024-01-15T03:53:17;2.70;99.90
19493;DHT22;9887;54.366;10.958;2024-01-15T03:55:44;2.60;99.90
19493;DHT22;9887;54.366;10.958;2024-01-15T03:58:12;2.70;99.90
19493;DHT22;9887;54.366;10.958;2024-01-15T04:00:43;2.60;99.90
19493;DHT22;9887;54.366;10.958;2024-01-15T04:03:11;2.70;99.90
19493;DHT22;9887;54.366;10.958;2024-01-15T04:05:39;2.60;99.90
19493;DHT22;9887;54.366;10.958;2024-01-15T04:08:08;2.70;99.90
19493;DHT22;9887;54.366;10.958;2024-01-15T04:10:36;2.60;99.90
19493;DHT22;9887;54.366;10.958;2024-01-15T04:13:04;2.60;99.90
19493;DHT22;9887;54.366;10.958;2024-01-15T04:15:32;2.60;99.90
19493;DHT22;9887;54.366;10.958;2024-01-15T04:18:01;2.60;99.90
19493;DHT22;9887;54.366;10.958;2024-01-15T04:20:29;2.60;99.90
19493;DHT22;9887;54.366;10.958;2024-01-15T04:22:57;2.60;99.90
19493;DHT22;9887;54.366;10.958;2024-01-15T04:25:26;2.60;99.90
19493;DHT22;9887;54.366;10.958;2024-01-15T04:27:54;2.60;99.90
19493;DHT22;9887;54.366;10.958;2024-01-15T04:30:22;2.60;99.90
19493;DHT22;9887;54.366;10.958;2024-01-15T04:32:50;2.60;99.90
19493;DHT22;9887;54.366;10.958;2024-01-15T04:35:18;2.60;99.90
19493;DHT22;9887;54.366;10.958;2024-01-15T04:37:46;2.60;99.90
19493;DHT22;9887;54.366;10.958;2024-01-15T04:40:14;2.60;99.90
19493;DHT22;9887;54.366;10.958;2024-01-15T04:42:43;2.60;99.90
19493;DHT22;9887;54.366;10.958;2024-01-15T04:45:12;2.60;99.90
19493;DHT22;9887;54.366;10.958;2024-01-15T04:47:40;2.60;99.90
19493;DHT22;9887;54.366;10.958;2024-01-15T04:50:09;2.60;99.90
19493;DHT22;9887;54.366;10.958;2024-01-15T04:52:37;2.60;99.90
19493;DHT22;9887;54.366;10.958;2024-01-15T04:57:38;2.60;99.90
19493;DHT22;9887;54.366;10.958;2024-01-15T05:00:08;2.60;99.90
19493;DHT22;9887;54.366;10.958;2024-01-15T05:02:36;2.60;99.90
19493;DHT22;9887;54.366;10.958;2024-01-15T05:05:04;2.60;99.90
19493;DHT22;9887;54.366;10.958;2024-01-15T05:07:33;2.60;99.90
19493;DHT22;9887;54.366;10.958;2024-01-15T05:10:01;2.60;99.90
19493;DHT22;9887;54.366;10.958;2024-01-15T05:12:30;2.50;99.90
19493;DHT22;9887;54.366;10.958;2024-01-15T05:14:58;2.60;99.90
19493;DHT22;9887;54.366;10.958;2024-01-15T05:17:27;2.60;99.90
19493;DHT22;9887;54.366;10.958;2024-01-15T05:19:55;2.60;99.90
19493;DHT22;9887;54.366;10.958;2024-01-15T05:22:23;2.50;99.90
19493;DHT22;9887;54.366;10.958;2024-01-15T05:24:52;2.50;99.90
19493;DHT22;9887;54.366;10.958;2024-01-15T05:27:20;2.50;99.90
19493;DHT22;9887;54.366;10.958;2024-01-15T05:29:48;2.60;99.90
19493;DHT22;9887;54.366;10.958;2024-01-15T05:32:16;2.50;99.90
19493;DHT22;9887;54.366;10.958;2024-01-15T05:34:45;2.60;99.90
19493;DHT22;9887;54.366;10.958;2024-01-15T05:37:13;2.60;99.90
19493;DHT22;9887;54.366;10.958;2024-01-15T05:39:41;2.50;99.90
19493;DHT22;9887;54.366;10.958;2024-01-15T05:42:09;2.50;99.90
19493;DHT22;9887;54.366;10.958;2024-01-15T05:44:36;2.50;99.90
19493;DHT22;9887;54.366;10.958;2024-01-15T05:47:04;2.50;99.90
19493;DHT22;9887;54.366;10.958;2024-01-15T05:49:32;2.60;99.90
19493;DHT22;9887;54.366;10.958;2024-01-15T05:52:02;2.50;99.90
19493;DHT22;9887;54.366;10.958;2024-01-15T05:54:30;2.50;99.90
19493;DHT22;9887;54.366;10.958;2024-01-15T05:56:58;2.60;99.90
19493;DHT22;9887;54.366;10.958;2024-01-15T05:59:25;2.50;99.90
19493;DHT22;9887;54.366;10.958;2024-01-15T06:01:55;2.50;99.90
19493;DHT22;9887;54.366;10.958;2024-01-15T06:04:22;2.50;99.90
19493;DHT22;9887;54.366;10.958;2024-01-15T06:06:50;2.50;99.90
19493;DHT22;9887;54.366;10.958;2024-01-15T06:09:20;2.50;99.90
19493;DHT22;9887;54.366;10.958;2024-01-15T06:11:48;2.50;99.90
19493;DHT22;9887;54.366;10.958;2024-01-15T06:14:17;2.50;99.90
19493;DHT22;9887;54.366;10.958;2024-01-15T06:16:44;2.50;99.90
19493;DHT22;9887;54.366;10.958;2024-01-15T06:19:13;2.40;99.90
19493;DHT22;9887;54.366;10.958;2024-01-15T06:21:41;2.40;99.90
19493;DHT22;9887;54.366;10.958;2024-01-15T06:24:09;2.50;99.90
19493;DHT22;9887;54.366;10.958;2024-01-15T06:26:39;2.40;99.90
19493;DHT22;9887;54.366;10.958;2024-01-15T06:29:07;2.40;99.90
19493;DHT22;9887;54.366;10.958;2024-01-15T06:31:35;2.40;99.90
19493;DHT22;9887;54.366;10.958;2024-01-15T06:34:03;2.40;99.90
19493;DHT22;9887;54.366;10.958;2024-01-15T06:36:31;2.40;99.90
19493;DHT22;9887;54.366;10.958;2024-01-15T06:38:59;2.40;99.90
19493;DHT22;9887;54.366;10.958;2024-01-15T06:41:27;2.40;99.90
19493;DHT22;9887;54.366;10.958;2024-01-15T06:43:56;2.40;99.90
19493;DHT22;9887;54.366;10.958;2024-01-15T06:46:24;2.40;99.90
19493;DHT22;9887;54.366;10.958;2024-01-15T06:48:52;2.40;99.90
19493;DHT22;9887;54.366;10.958;2024-01-15T06:51:21;2.40;99.90
19493;DHT22;9887;54.366;10.958;2024-01-15T06:53:49;2.40;99.90
19493;DHT22;9887;54.366;10.958;2024-01-15T06:56:17;2.40;99.90
19493;DHT22;9887;54.366;10.958;2024-01-15T06:58:45;2.30;99.90
19493;DHT22;9887;54.366;10.958;2024-01-15T07:01:14;2.30;99.90
19493;DHT22;9887;54.366;10.958;2024-01-15T07:03:43;2.30;99.90
19493;DHT22;9887;54.366;10.958;2024-01-15T07:06:11;2.30;99.90
19493;DHT22;9887;54.366;10.958;2024-01-15T07:08:39;2.30;99.90
19493;DHT22;9887;54.366;10.958;2024-01-15T07:11:08;2.30;99.90
19493;DHT22;9887;54.366;10.958;2024-01-15T07:13:36;2.30;99.90
19493;DHT22;9887;54.366;10.958;2024-01-15T07:16:04;2.30;99.90
19493;DHT22;9887;54.366;10.958;2024-01-15T07:18:35;2.30;99.90
19493;DHT22;9887;54.366;10.958;2024-01-15T07:21:03;2.30;99.90
19493;DHT22;9887;54.366;10.958;2024-01-15T07:23:32;2.30;99.90
19493;DHT22;9887;54.366;10.958;2024-01-15T07:25:59;2.30;99.90
19493;DHT22;9887;54.366;10.958;2024-01-15T07:28:29;2.30;99.90
19493;DHT22;9887;54.366;10.958;2024-01-15T07:30:58;2.30;99.90
19493;DHT22;9887;54.366;10.958;2024-01-15T07:33:28;2.30;99.90
19493;DHT22;9887;54.366;10.958;2024-01-15T07:35:58;2.30;99.90
19493;DHT22;9887;54.366;10.958;2024-01-15T07:38:29;2.30;99.90
19493;DHT22;9887;54.366;10.958;2024-01-15T07:40:57;2.30;99.90
19493;DHT22;9887;54.366;10.958;2024-01-15T07:43:25;2.30;99.90
19493;DHT22;9887;54.366;10.958;2024-01-15T07:45:53;2.30;99.90
19493;DHT22;9887;54.366;10.958;2024-01-15T07:48:21;2.30;99.90
19493;DHT22;9887;54.366;10.958;2024-01-15T07:50:49;2.30;99.90
19493;DHT22;9887;54.366;10.958;2024-01-15T07:53:18;2.30;99.90
19493;DHT22;9887;54.366;10.958;2024-01-15T07:55:46;2.30;99.90
19493;DHT22;9887;54.366;10.958;2024-01-15T07:58:14;2.30;99.90
19493;DHT22;9887;54.366;10.958;2024-01-15T08:00:43;2.20;99.90
19493;DHT22;9887;54.366;10.958;2024-01-15T08:03:11;2.30;99.90
19493;DHT22;9887;54.366;10.958;2024-01-15T08:05:40;2.30;99.90
19493;DHT22;9887;54.366;10.958;2024-01-15T08:08:08;2.20;99.90
19493;DHT22;9887;54.366;10.958;2024-01-15T08:10:37;2.20;99.90
19493;DHT22;9887;54.366;10.958;2024-01-15T08:13:05;2.20;99.90
19493;DHT22;9887;54.366;10.958;2024-01-15T08:15:34;2.20;99.90
19493;DHT22;9887;54.366;10.958;2024-01-15T08:18:02;2.20;99.90
19493;DHT22;9887;54.366;10.958;2024-01-15T08:20:30;2.20;99.90
19493;DHT22;9887;54.366;10.958;2024-01-15T08:22:59;2.20;99.90
19493;DHT22;9887;54.366;10.958;2024-01-15T08:25:27;2.20;99.90
19493;DHT22;9887;54.366;10.958;2024-01-15T08:27:57;2.20;99.90
19493;DHT22;9887;54.366;10.958;2024-01-15T08:30:25;2.20;99.90
19493;DHT22;9887;54.366;10.958;2024-01-15T08:32:55;2.20;99.90
19493;DHT22;9887;54.366;10.958;2024-01-15T08:35:34;2.20;99.90
19493;DHT22;9887;54.366;10.958;2024-01-15T08:38:02;2.20;99.90
19493;DHT22;9887;54.366;10.958;2024-01-15T08:40:30;2.20;99.90
19493;DHT22;9887;54.366;10.958;2024-01-15T08:43:00;2.20;99.90
19493;DHT22;9887;54.366;10.958;2024-01-15T08:45:28;2.20;99.90
19493;DHT22;9887;54.366;10.958;2024-01-15T08:47:58;2.20;99.90
19493;DHT22;9887;54.366;10.958;2024-01-15T08:50:26;2.20;99.90
19493;DHT22;9887;54.366;10.958;2024-01-15T08:52:54;2.20;99.90
19493;DHT22;9887;54.366;10.958;2024-01-15T08:55:22;2.20;99.90
19493;DHT22;9887;54.366;10.958;2024-01-15T08:57:52;2.20;99.90
19493;DHT22;9887;54.366;10.958;2024-01-15T09:00:22;2.20;99.90
19493;DHT22;9887;54.366;10.958;2024-01-15T09:02:50;2.20;99.90
19493;DHT22;9887;54.366;10.958;2024-01-15T09:05:18;2.10;99.90
19493;DHT22;9887;54.366;10.958;2024-01-15T09:07:46;2.10;99.90
19493;DHT22;9887;54.366;10.958;2024-01-15T09:10:14;2.10;99.90
19493;DHT22;9887;54.366;10.958;2024-01-15T09:12:42;2.10;99.90
19493;DHT22;9887;54.366;10.958;2024-01-15T09:15:10;2.10;99.90
19493;DHT22;9887;54.366;10.958;2024-01-15T09:17:40;2.10;99.90
19493;DHT22;9887;54.366;10.958;2024-01-15T09:20:10;2.10;99.90
19493;DHT22;9887;54.366;10.958;2024-01-15T09:22:38;2.10;99.90
19493;DHT22;9887;54.366;10.958;2024-01-15T09:25:07;2.10;99.90
19493;DHT22;9887;54.366;10.958;2024-01-15T09:27:36;2.10;99.90
19493;DHT22;9887;54.366;10.958;2024-01-15T09:30:05;2.10;99.90
19493;DHT22;9887;54.366;10.958;2024-01-15T09:32:34;2.10;99.90
19493;DHT22;9887;54.366;10.958;2024-01-15T09:35:03;2.10;99.90
19493;DHT22;9887;54.366;10.958;2024-01-15T09:37:32;2.10;99.90
19493;DHT22;9887;54.366;10.958;2024-01-15T09:40:13;2.10;99.90
19493;DHT22;9887;54.366;10.958;2024-01-15T09:42:43;2.10;99.90
19493;DHT22;9887;54.366;10.958;2024-01-15T09:45:11;2.10;99.90
19493;DHT22;9887;54.366;10.958;2024-01-15T09:47:40;2.10;99.90
19493;DHT22;9887;54.366;10.958;2024-01-15T09:50:14;2.10;99.90
19493;DHT22;9887;54.366;10.958;2024-01-15T09:52:43;2.10;99.90
19493;DHT22;9887;54.366;10.958;2024-01-15T09:55:12;2.10;99.90
19493;DHT22;9887;54.366;10.958;2024-01-15T09:57:42;2.00;99.90
19493;DHT22;9887;54.366;10.958;2024-01-15T10:00:12;2.00;99.90
19493;DHT22;9887;54.366;10.958;2024-01-15T10:02:40;2.00;99.90
19493;DHT22;9887;54.366;10.958;2024-01-15T10:05:09;2.00;99.90
19493;DHT22;9887;54.366;10.958;2024-01-15T10:07:38;2.00;99.90
19493;DHT22;9887;54.366;10.958;2024-01-15T10:10:08;2.10;99.90
19493;DHT22;9887;54.366;10.958;2024-01-15T10:12:37;2.10;99.90
19493;DHT22;9887;54.366;10.958;2024-01-15T10:15:05;2.10;99.90
19493;DHT22;9887;54.366;10.958;2024-01-15T10:17:35;2.10;99.90
19493;DHT22;9887;54.366;10.958;2024-01-15T10:20:08;2.10;99.90
19493;DHT22;9887;54.366;10.958;2024-01-15T10:22:40;2.10;99.90
19493;DHT22;9887;54.366;10.958;2024-01-15T10:25:12;2.00;99.90
19493;DHT22;9887;54.366;10.958;2024-01-15T10:27:40;2.10;99.90
19493;DHT22;9887;54.366;10.958;2024-01-15T10:30:09;2.10;99.90
19493;DHT22;9887;54.366;10.958;2024-01-15T10:32:38;2.00;99.90
19493;DHT22;9887;54.366;10.958;2024-01-15T10:35:09;2.00;99.90
19493;DHT22;9887;54.366;10.958;2024-01-15T10:37:37;2.10;99.90
19493;DHT22;9887;54.366;10.958;2024-01-15T10:40:07;2.10;99.90
19493;DHT22;9887;54.366;10.958;2024-01-15T10:42:36;2.00;99.90
19493;DHT22;9887;54.366;10.958;2024-01-15T10:45:05;2.10;99.90
19493;DHT22;9887;54.366;10.958;2024-01-15T10:47:36;2.10;99.90
19493;DHT22;9887;54.366;10.958;2024-01-15T10:50:06;2.10;99.90
19493;DHT22;9887;54.366;10.958;2024-01-15T10:52:34;2.10;99.90
19493;DHT22;9887;54.366;10.958;2024-01-15T10:55:07;2.10;99.90
19493;DHT22;9887;54.366;10.958;2024-01-15T10:57:44;2.10;99.90
19493;DHT22;9887;54.366;10.958;2024-01-15T11:00:14;2.10;99.90
19493;DHT22;9887;54.366;10.958;2024-01-15T11:02:42;2.10;99.90
19493;DHT22;9887;54.366;10.958;2024-01-15T11:05:11;2.10;99.90
19493;DHT22;9887;54.366;10.958;2024-01-15T11:07:39;2.10;99.90
19493;DHT22;9887;54.366;10.958;2024-01-15T11:10:41;2.10;99.90
19493;DHT22;9887;54.366;10.958;2024-01-15T11:13:13;2.10;99.90
19493;DHT22;9887;54.366;10.958;2024-01-15T11:15:56;2.10;99.90
19493;DHT22;9887;54.366;10.958;2024-01-15T11:18:27;2.10;99.90
19493;DHT22;9887;54.366;10.958;2024-01-15T11:21:20;2.10;99.90
19493;DHT22;9887;54.366;10.958;2024-01-15T11:23:51;2.10;99.90
19493;DHT22;9887;54.366;10.958;2024-01-15T11:26:29;2.10;99.90
19493;DHT22;9887;54.366;10.958;2024-01-15T11:28:58;2.10;99.90
19493;DHT22;9887;54.366;10.958;2024-01-15T11:31:28;2.10;99.90
19493;DHT22;9887;54.366;10.958;2024-01-15T11:33:56;2.10;99.90
19493;DHT22;9887;54.366;10.958;2024-01-15T11:39:40;2.10;99.90
19493;DHT22;9887;54.366;10.958;2024-01-15T11:42:11;2.10;99.90
19493;DHT22;9887;54.366;10.958;2024-01-15T11:44:40;2.10;99.90
19493;DHT22;9887;54.366;10.958;2024-01-15T11:47:09;2.10;99.90
19493;DHT22;9887;54.366;10.958;2024-01-15T11:49:58;2.10;99.90
19493;DHT22;9887;54.366;10.958;2024-01-15T11:52:32;2.10;99.90
19493;DHT22;9887;54.366;10.958;2024-01-15T11:55:07;2.10;99.90
19493;DHT22;9887;54.366;10.958;2024-01-15T11:57:44;2.10;99.90
19493;DHT22;9887;54.366;10.958;2024-01-15T12:00:13;2.10;99.90
19493;DHT22;9887;54.366;10.958;2024-01-15T12:02:42;2.10;99.90
19493;DHT22;9887;54.366;10.958;2024-01-15T12:05:12;2.10;99.90
19493;DHT22;9887;54.366;10.958;2024-01-15T12:07:40;2.10;99.90
19493;DHT22;9887;54.366;10.958;2024-01-15T12:10:09;2.10;99.90
19493;DHT22;9887;54.366;10.958;2024-01-15T12:12:57;2.10;99.90
19493;DHT22;9887;54.366;10.958;2024-01-15T12:15:26;2.10;99.90
19493;DHT22;9887;54.366;10.958;2024-01-15T12:17:55;2.10;99.90
19493;DHT22;9887;54.366;10.958;2024-01-15T12:20:24;2.10;99.90
19493;DHT22;9887;54.366;10.958;2024-01-15T12:22:52;2.10;99.90
19493;DHT22;9887;54.366;10.958;2024-01-15T12:25:29;2.10;99.90
19493;DHT22;9887;54.366;10.958;2024-01-15T12:28:00;2.10;99.90
19493;DHT22;9887;54.366;10.958;2024-01-15T12:30:29;2.10;99.90
19493;DHT22;9887;54.366;10.958;2024-01-15T12:33:00;2.10;99.90
19493;DHT22;9887;54.366;10.958;2024-01-15T12:35:29;2.10;99.90
19493;DHT22;9887;54.366;10.958;2024-01-15T12:37:59;2.10;99.90
19493;DHT22;9887;54.366;10.958;2024-01-15T12:40:31;2.10;99.90
19493;DHT22;9887;54.366;10.958;2024-01-15T12:43:01;2.10;99.90
19493;DHT22;9887;54.366;10.958;2024-01-15T12:45:30;2.10;99.90
19493;DHT22;9887;54.366;10.958;2024-01-15T12:47:59;2.10;99.90
19493;DHT22;9887;54.366;10.958;2024-01-15T12:50:28;2.10;99.90
19493;DHT22;9887;54.366;10.958;2024-01-15T12:52:56;2.10;99.90
19493;DHT22;9887;54.366;10.958;2024-01-15T12:55:26;2.10;99.90
19493;DHT22;9887;54.366;10.958;2024-01-15T12:57:54;2.10;99.90
19493;DHT22;9887;54.366;10.958;2024-01-15T13:00:24;2.10;99.90
19493;DHT22;9887;54.366;10.958;2024-01-15T13:02:53;2.10;99.90
19493;DHT22;9887;54.366;10.958;2024-01-15T13:05:22;2.10;99.90
19493;DHT22;9887;54.366;10.958;2024-01-15T13:07:51;2.10;99.90
19493;DHT22;9887;54.366;10.958;2024-01-15T13:10:20;2.10;99.90
19493;DHT22;9887;54.366;10.958;2024-01-15T13:12:52;2.10;99.90
19493;DHT22;9887;54.366;10.958;2024-01-15T13:15:21;2.10;99.90
19493;DHT22;9887;54.366;10.958;2024-01-15T13:17:50;2.10;99.90
19493;DHT22;9887;54.366;10.958;2024-01-15T13:20:18;2.10;99.90
19493;DHT22;9887;54.366;10.958;2024-01-15T13:22:46;2.10;99.90
19493;DHT22;9887;54.366;10.958;2024-01-15T13:25:14;2.10;99.90
19493;DHT22;9887;54.366;10.958;2024-01-15T13:27:43;2.10;99.90
19493;DHT22;9887;54.366;10.958;2024-01-15T13:30:11;2.10;99.90
19493;DHT22;9887;54.366;10.958;2024-01-15T13:32:40;2.10;99.90
19493;DHT22;9887;54.366;10.958;2024-01-15T13:35:10;2.10;99.90
19493;DHT22;9887;54.366;10.958;2024-01-15T13:37:40;2.10;99.90
19493;DHT22;9887;54.366;10.958;2024-01-15T13:40:09;2.10;99.90
19493;DHT22;9887;54.366;10.958;2024-01-15T13:42:43;2.10;99.90
19493;DHT22;9887;54.366;10.958;2024-01-15T13:45:12;2.00;99.90
19493;DHT22;9887;54.366;10.958;2024-01-15T13:47:42;2.00;99.90
19493;DHT22;9887;54.366;10.958;2024-01-15T13:50:12;2.00;99.90
19493;DHT22;9887;54.366;10.958;2024-01-15T13:52:41;2.00;99.90
19493;DHT22;9887;54.366;10.958;2024-01-15T13:55:09;2.00;99.90
19493;DHT22;9887;54.366;10.958;2024-01-15T13:57:37;2.00;99.90
19493;DHT22;9887;54.366;10.958;2024-01-15T14:00:06;2.00;99.90
19493;DHT22;9887;54.366;10.958;2024-01-15T14:02:39;2.00;99.90
19493;DHT22;9887;54.366;10.958;2024-01-15T14:05:07;2.00;99.90
19493;DHT22;9887;54.366;10.958;2024-01-15T14:07:37;2.00;99.90
19493;DHT22;9887;54.366;10.958;2024-01-15T14:10:07;2.00;99.90
19493;DHT22;9887;54.366;10.958;2024-01-15T14:12:35;2.00;99.90
19493;DHT22;9887;54.366;10.958;2024-01-15T14:15:05;1.90;99.90
19493;DHT22;9887;54.366;10.958;2024-01-15T14:17:34;2.00;99.90
19493;DHT22;9887;54.366;10.958;2024-01-15T14:20:03;2.00;99.90
19493;DHT22;9887;54.366;10.958;2024-01-15T14:22:32;1.90;99.90
19493;DHT22;9887;54.366;10.958;2024-01-15T14:25:02;1.90;99.90
19493;DHT22;9887;54.366;10.958;2024-01-15T14:27:31;1.90;99.90
19493;DHT22;9887;54.366;10.958;2024-01-15T14:29:59;1.90;99.90
19493;DHT22;9887;54.366;10.958;2024-01-15T14:32:28;1.90;99.90
19493;DHT22;9887;54.366;10.958;2024-01-15T14:34:57;1.90;99.90
19493;DHT22;9887;54.366;10.958;2024-01-15T14:37:25;1.90;99.90
19493;DHT22;9887;54.366;10.958;2024-01-15T14:39:53;1.90;99.90
19493;DHT22;9887;54.366;10.958;2024-01-15T14:42:23;1.90;99.90
19493;DHT22;9887;54.366;10.958;2024-01-15T14:44:51;1.90;99.90
19493;DHT22;9887;54.366;10.958;2024-01-15T14:47:19;1.90;99.90
19493;DHT22;9887;54.366;10.958;2024-01-15T14:49:51;1.90;99.90
19493;DHT22;9887;54.366;10.958;2024-01-15T14:52:19;1.80;99.90
19493;DHT22;9887;54.366;10.958;2024-01-15T14:54:47;1.80;99.90
19493;DHT22;9887;54.366;10.958;2024-01-15T14:57:15;1.80;99.90
19493;DHT22;9887;54.366;10.958;2024-01-15T14:59:44;1.80;99.90
19493;DHT22;9887;54.366;10.958;2024-01-15T15:02:12;1.80;99.90
19493;DHT22;9887;54.366;10.958;2024-01-15T15:04:41;1.80;99.90
19493;DHT22;9887;54.366;10.958;2024-01-15T15:07:15;1.80;99.90
19493;DHT22;9887;54.366;10.958;2024-01-15T15:09:43;1.80;99.90
19493;DHT22;9887;54.366;10.958;2024-01-15T15:12:10;1.80;99.90
19493;DHT22;9887;54.366;10.958;2024-01-15T15:14:37;1.80;99.90
19493;DHT22;9887;54.366;10.958;2024-01-15T15:17:23;1.80;99.90
19493;DHT22;9887;54.366;10.958;2024-01-15T15:19:51;1.80;99.90
19493;DHT22;9887;54.366;10.958;2024-01-15T15:22:20;1.70;99.90
19493;DHT22;9887;54.366;10.958;2024-01-15T15:24:48;1.70;99.90
19493;DHT22;9887;54.366;10.958;2024-01-15T15:27:17;1.70;99.90
19493;DHT22;9887;54.366;10.958;2024-01-15T15:29:44;1.70;99.90
19493;DHT22;9887;54.366;10.958;2024-01-15T15:32:14;1.70;99.90
19493;DHT22;9887;54.366;10.958;2024-01-15T15:34:43;1.70;99.90
19493;DHT22;9887;54.366;10.958;2024-01-15T15:37:12;1.70;99.90
19493;DHT22;9887;54.366;10.958;2024-01-15T15:39:44;1.70;99.90
19493;DHT22;9887;54.366;10.958;2024-01-15T15:42:12;1.60;99.90
19493;DHT22;9887;54.366;10.958;2024-01-15T15:44:41;1.70;99.90
19493;DHT22;9887;54.366;10.958;2024-01-15T15:47:13;1.60;99.90
19493;DHT22;9887;54.366;10.958;2024-01-15T15:49:41;1.70;99.90
19493;DHT22;9887;54.366;10.958;2024-01-15T15:52:11;1.60;99.90
19493;DHT22;9887;54.366;10.958;2024-01-15T15:54:39;1.60;99.90
19493;DHT22;9887;54.366;10.958;2024-01-15T15:57:07;1.60;99.90
19493;DHT22;9887;54.366;10.958;2024-01-15T15:59:35;1.60;99.90
19493;DHT22;9887;54.366;10.958;2024-01-15T16:02:03;1.60;99.90